createdAt,value
2023-03-11T00:35:19.033Z,28.75
2023-03-11T00:36:19.151Z,25.95
2023-03-11T00:37:19.266Z,31.01
2023-03-11T00:38:19.457Z,29.18
2023-03-11T00:39:19.489Z,30.92
2023-03-11T00:40:19.613Z,31.36
2023-03-11T00:41:19.710Z,29.16
2023-03-11T00:42:19.832Z,28.19
2023-03-11T00:43:19.950Z,30.00
2023-03-11T00:44:20.055Z,31.99
2023-03-11T00:45:20.156Z,30.47
2023-03-11T02:08:28.961Z,29.43
2023-03-11T02:09:29.032Z,28.54
2023-03-11T02:10:29.137Z,28.27
2023-03-11T02:11:29.247Z,29.98
2023-03-11T02:12:29.320Z,26.95
2023-03-11T02:13:29.400Z,27.50
2023-03-11T02:14:29.472Z,27.87
2023-03-11T02:15:29.545Z,28.87
2023-03-11T02:16:29.715Z,30.42
2023-03-11T02:17:29.741Z,25.01
2023-03-11T02:18:29.832Z,28.46
2023-03-11T02:19:29.888Z,28.09
2023-03-11T02:20:29.958Z,24.97
2023-03-11T02:21:30.047Z,32.13
2023-03-11T02:22:30.138Z,29.32
2023-03-11T02:23:30.203Z,29.45
2023-03-11T02:24:30.297Z,28.44
2023-03-11T02:25:30.380Z,28.76
2023-03-11T02:26:30.459Z,26.27
2023-03-11T02:27:30.543Z,27.65
2023-03-11T02:28:30.632Z,29.55
2023-03-11T02:29:30.759Z,29.53
2023-03-11T02:30:30.865Z,28.98
2023-03-11T02:31:30.996Z,29.34
2023-03-11T02:32:31.128Z,29.63
2023-03-11T02:33:31.143Z,27.66
2023-03-11T02:34:31.237Z,29.38
2023-03-11T02:35:31.395Z,26.85
2023-03-11T02:36:31.409Z,27.62
2023-03-11T02:37:31.500Z,28.84
2023-03-11T02:38:31.588Z,31.65
2023-03-11T02:39:31.713Z,29.36
2023-03-11T02:40:31.788Z,30.91
2023-03-11T02:41:31.880Z,27.82
2023-03-11T02:42:31.981Z,28.25
2023-03-11T02:43:32.082Z,26.91
2023-03-11T02:44:32.190Z,29.22
2023-03-11T02:45:32.281Z,29.90
2023-03-11T02:46:32.414Z,27.06
2023-03-11T02:47:32.449Z,27.83
2023-03-11T02:48:32.528Z,31.25
2023-03-11T02:49:32.586Z,30.80
2023-03-11T02:50:32.677Z,29.29
2023-03-11T02:51:32.747Z,31.15
2023-03-11T02:52:32.811Z,30.64
2023-03-11T02:53:32.899Z,27.90
2023-03-11T02:55:33.055Z,29.16
2023-03-11T02:56:33.092Z,29.61
2023-03-11T02:57:33.170Z,28.32
2023-03-11T02:58:33.281Z,30.80
2023-03-11T02:59:33.373Z,30.38
2023-03-11T03:00:33.516Z,28.52
2023-03-11T03:01:33.577Z,26.14
2023-03-11T03:02:33.675Z,26.90
2023-03-11T04:00:38.994Z,25.00
2023-03-11T04:01:39.082Z,30.38
2023-03-11T04:02:39.230Z,28.64
2023-03-11T04:03:39.310Z,31.05
2023-03-11T04:04:39.345Z,31.40
2023-03-11T04:05:39.413Z,30.12
2023-03-11T04:06:39.496Z,27.96
2023-03-11T04:07:39.563Z,29.30
2023-03-11T04:08:39.611Z,28.34
2023-03-11T04:09:39.684Z,28.02
2023-03-11T04:10:39.750Z,28.60
2023-03-11T04:11:39.831Z,27.76
2023-03-11T04:12:39.908Z,26.63
2023-03-11T04:13:39.974Z,28.47
2023-03-11T04:14:40.052Z,28.67
2023-03-11T04:15:40.115Z,27.75
2023-03-11T04:16:40.202Z,28.37
2023-03-11T04:17:40.260Z,31.29
2023-03-11T04:18:40.334Z,31.71
2023-03-11T04:19:40.437Z,29.74
2023-03-11T04:20:40.534Z,30.07
2023-03-11T04:21:40.628Z,30.01
2023-03-11T04:22:40.699Z,32.64
2023-03-11T04:23:40.788Z,31.16
2023-03-11T04:24:40.882Z,27.08
2023-03-11T04:25:40.950Z,32.61
2023-03-11T04:26:41.020Z,32.15
2023-03-11T04:27:41.102Z,29.65
2023-03-11T04:28:41.200Z,27.87
2023-03-11T04:29:41.314Z,32.22
2023-03-11T04:30:41.406Z,27.68
2023-03-11T04:31:41.474Z,31.32
2023-03-11T04:32:41.583Z,31.84
2023-03-11T04:33:41.647Z,32.28
2023-03-11T04:34:41.778Z,28.61
2023-03-11T04:35:41.940Z,31.90
2023-03-11T04:36:42.003Z,30.56
2023-03-11T04:37:42.087Z,29.31
2023-03-11T04:38:42.194Z,29.66
2023-03-11T04:39:42.309Z,28.77
2023-03-11T04:40:42.421Z,31.07
2023-03-11T04:41:42.530Z,26.27
2023-03-11T04:42:42.634Z,28.43
2023-03-11T04:43:42.732Z,31.90
2023-03-11T04:44:42.830Z,26.84
2023-03-11T04:45:42.932Z,30.17
2023-03-11T04:46:43.029Z,29.96
2023-03-11T04:47:43.100Z,28.83
2023-03-11T04:48:43.208Z,29.69
2023-03-11T04:49:43.289Z,26.86
2023-03-11T04:50:43.365Z,29.26
2023-03-11T04:51:43.450Z,32.72
2023-03-11T04:52:43.528Z,29.83
2023-03-11T04:53:43.615Z,29.51
2023-03-11T04:54:43.691Z,28.53
2023-03-11T04:55:43.757Z,31.42
2023-03-11T04:56:43.858Z,30.68
2023-03-11T04:57:43.974Z,28.06
2023-03-11T04:58:44.042Z,27.95
2023-03-11T04:59:44.140Z,28.31
2023-03-11T05:00:44.238Z,30.20
2023-03-11T05:01:44.357Z,28.87
2023-03-11T05:02:44.414Z,31.14
2023-03-11T05:03:44.501Z,30.54
2023-03-11T05:04:44.724Z,30.22
2023-03-11T05:50:48.930Z,29.58
2023-03-11T05:51:49.019Z,27.15
2023-03-11T08:00:58.935Z,30.69
2023-03-11T08:01:58.999Z,29.99
2023-03-11T08:02:59.090Z,29.02
2023-03-11T08:03:59.233Z,30.66
2023-03-11T08:04:59.174Z,29.06
2023-03-11T08:05:59.230Z,28.29
2023-03-11T08:06:59.297Z,26.47
2023-03-11T08:07:59.342Z,27.76
2023-03-11T08:08:59.401Z,28.99
2023-03-11T08:09:59.435Z,30.07
2023-03-11T08:10:59.517Z,29.10
2023-03-11T08:11:59.585Z,27.94
2023-03-11T08:12:59.618Z,28.97
2023-03-11T08:13:59.676Z,28.70
2023-03-11T08:14:59.721Z,28.28
2023-03-11T08:15:59.797Z,31.07
2023-03-11T08:16:59.850Z,29.66
2023-03-11T08:17:59.900Z,28.62
2023-03-11T08:18:59.953Z,31.78
2023-03-11T08:20:00.017Z,27.70
2023-03-11T08:21:00.067Z,27.23
2023-03-11T08:22:00.119Z,28.46
2023-03-11T08:23:00.175Z,28.74
2023-03-11T08:24:00.197Z,25.26
2023-03-11T08:25:00.240Z,27.39
2023-03-11T08:26:00.303Z,29.99
2023-03-11T08:27:00.366Z,32.18
2023-03-11T08:28:00.449Z,34.17
2023-03-11T08:29:00.528Z,30.98
2023-03-11T08:30:00.610Z,29.70
2023-03-11T08:31:00.701Z,27.90
2023-03-11T08:32:00.763Z,26.15
2023-03-11T08:33:00.758Z,30.04
2023-03-11T08:34:00.805Z,29.94
2023-03-11T08:35:00.869Z,26.89
2023-03-11T08:36:00.948Z,27.30
2023-03-11T08:37:01.010Z,28.43
2023-03-11T08:38:01.057Z,27.33
2023-03-11T08:39:01.223Z,26.89
2023-03-11T08:40:01.165Z,34.10
2023-03-11T08:41:01.216Z,30.70
2023-03-11T08:42:01.282Z,31.61
2023-03-11T08:43:01.323Z,33.28
2023-03-11T08:44:01.375Z,29.89
2023-03-11T08:46:01.552Z,28.09
2023-03-11T08:47:01.573Z,31.53
2023-03-11T08:48:01.607Z,27.82
2023-03-11T10:52:08.953Z,28.08
2023-03-11T10:53:09.016Z,29.48
2023-03-11T13:31:18.949Z,27.21
2023-03-11T13:32:18.985Z,29.72
2023-03-11T13:33:19.036Z,29.69
2023-03-11T13:34:19.096Z,29.96
2023-03-11T13:35:19.144Z,30.10
2023-03-11T13:36:19.191Z,28.23
2023-03-11T13:37:19.239Z,27.46
2023-03-11T13:38:19.296Z,27.53
2023-03-11T13:39:19.342Z,26.83
2023-03-11T13:40:19.410Z,26.70
2023-03-11T13:41:19.460Z,26.09
2023-03-11T13:42:19.506Z,25.57
2023-03-11T13:43:19.563Z,26.25
2023-03-11T13:44:19.605Z,27.23
2023-03-11T13:45:19.651Z,25.19
2023-03-11T13:46:19.705Z,25.11
2023-03-11T13:47:19.760Z,27.61
2023-03-11T13:48:19.838Z,25.73
2023-03-11T13:49:19.856Z,27.05
2023-03-11T13:50:19.904Z,31.33
2023-03-11T13:51:19.962Z,29.84
2023-03-11T13:52:20.061Z,32.35
2023-03-11T13:53:20.124Z,29.91
2023-03-11T13:54:20.355Z,28.74
2023-03-11T13:55:20.221Z,27.03
2023-03-11T13:56:20.275Z,26.04
2023-03-11T13:57:20.325Z,30.99
2023-03-11T13:58:20.411Z,27.28
2023-03-11T13:59:20.438Z,29.55
2023-03-11T14:00:20.535Z,28.58
2023-03-11T14:01:20.702Z,27.03
2023-03-11T14:02:20.726Z,28.86
2023-03-11T14:03:20.838Z,27.86
2023-03-11T14:04:21.045Z,27.14
2023-03-11T14:05:21.040Z,27.27
2023-03-11T14:06:21.101Z,29.51
2023-03-11T14:07:21.224Z,26.86
2023-03-11T14:08:21.218Z,31.18
2023-03-11T14:09:21.319Z,26.18
2023-03-11T14:10:21.442Z,29.64
2023-03-11T14:11:21.525Z,30.63
2023-03-11T14:12:21.704Z,28.29
2023-03-11T14:13:21.748Z,26.87
2023-03-11T14:14:21.807Z,27.18
2023-03-11T14:15:21.865Z,25.92
2023-03-11T14:16:22.007Z,26.68
2023-03-11T14:17:21.955Z,29.89
2023-03-11T14:18:22.017Z,30.17
2023-03-11T14:19:22.088Z,29.61
2023-03-11T14:20:22.195Z,29.84
2023-03-11T14:21:22.195Z,27.68
2023-03-11T14:22:22.237Z,29.44
2023-03-11T14:23:22.311Z,29.74
2023-03-11T14:24:22.388Z,31.46
2023-03-11T14:25:22.439Z,31.70
2023-03-11T14:26:22.504Z,29.38
2023-03-11T14:27:22.550Z,29.24
2023-03-11T14:28:22.593Z,28.64
2023-03-11T16:19:28.961Z,33.76
2023-03-11T16:20:29.035Z,31.55
2023-03-11T16:21:29.086Z,36.57
2023-03-11T16:22:29.145Z,35.23
2023-03-11T16:23:30.751Z,32.66
2023-03-11T16:24:29.246Z,35.09
2023-03-11T16:25:29.306Z,34.15
2023-03-11T16:26:29.351Z,33.58
2023-03-11T16:27:29.404Z,33.83
2023-03-11T16:28:29.463Z,35.21
2023-03-11T16:29:29.509Z,33.72
2023-03-11T16:30:29.552Z,33.85
2023-03-11T16:31:29.625Z,37.11
2023-03-11T16:32:29.698Z,34.64
2023-03-11T16:33:29.699Z,36.87
2023-03-11T16:34:29.744Z,36.39
2023-03-11T16:35:29.864Z,40.96
2023-03-11T16:36:29.853Z,37.99
2023-03-11T16:37:29.930Z,35.75
2023-03-11T16:38:30.010Z,37.10
2023-03-11T16:39:30.049Z,36.32
2023-03-11T16:40:30.079Z,35.05
2023-03-11T16:41:30.086Z,35.09
2023-03-11T16:42:30.140Z,34.71
2023-03-11T16:43:30.205Z,35.59
2023-03-11T16:44:30.245Z,39.61
2023-03-11T16:45:30.287Z,34.45
2023-03-11T16:46:30.343Z,35.57
2023-03-11T16:47:30.387Z,34.68
2023-03-11T16:48:30.426Z,37.86
2023-03-11T16:49:30.477Z,39.44
2023-03-11T16:50:30.586Z,34.96
2023-03-11T16:51:30.588Z,38.20
2023-03-11T16:52:30.679Z,35.29
2023-03-11T16:54:30.725Z,39.28
2023-03-11T16:55:30.767Z,40.17
2023-03-11T16:56:30.817Z,35.39
2023-03-11T16:57:30.858Z,36.42
2023-03-11T16:58:30.913Z,38.65
2023-03-11T16:59:30.957Z,41.78
2023-03-11T17:00:31.054Z,36.61
2023-03-11T17:01:31.125Z,40.41
2023-03-11T17:02:31.094Z,36.99
2023-03-11T17:03:41.036Z,38.83
2023-03-11T17:04:32.264Z,39.11
2023-03-11T19:05:38.921Z,41.02
2023-03-11T19:06:38.998Z,38.11
2023-03-11T19:07:39.056Z,41.23
2023-03-11T19:08:39.123Z,43.35
2023-03-11T19:09:39.187Z,40.20
2023-03-11T19:10:39.258Z,41.67
2023-03-11T19:11:39.320Z,41.41
2023-03-11T19:12:39.401Z,37.71
2023-03-11T19:13:47.725Z,40.01
2023-03-11T19:14:40.494Z,40.27
2023-03-11T19:15:39.539Z,40.70
2023-03-11T19:16:39.693Z,40.72
2023-03-11T19:17:39.633Z,42.95
2023-03-11T19:18:39.678Z,41.13
2023-03-11T19:19:39.723Z,43.66
2023-03-11T19:20:39.814Z,42.58
2023-03-11T19:21:39.826Z,41.09
2023-03-11T19:22:39.884Z,38.99
2023-03-11T19:23:39.923Z,37.05
2023-03-11T19:24:39.967Z,41.04
2023-03-11T19:25:42.586Z,39.34
2023-03-11T19:26:45.324Z,39.67
2023-03-11T19:27:40.107Z,39.73
2023-03-11T19:28:40.198Z,40.38
2023-03-11T19:29:40.210Z,40.97
2023-03-11T19:30:41.266Z,42.84
2023-03-11T19:31:40.310Z,46.98
2023-03-11T19:32:40.411Z,46.49
2023-03-11T19:33:40.396Z,41.91
2023-03-11T19:34:40.451Z,42.91
2023-03-11T19:35:40.515Z,42.42
2023-03-11T19:36:40.581Z,44.55
2023-03-11T19:37:40.582Z,41.18
2023-03-11T19:38:40.621Z,41.89
2023-03-11T19:39:40.667Z,41.40
2023-03-11T19:40:40.718Z,39.32
2023-03-11T19:41:40.771Z,41.44
2023-03-11T19:42:40.823Z,44.37
2023-03-11T19:43:40.850Z,40.22
2023-03-11T19:44:40.907Z,42.39
2023-03-11T19:45:40.930Z,37.91
2023-03-11T19:46:41.025Z,41.32
2023-03-11T19:47:41.026Z,41.54
2023-03-11T19:48:41.074Z,41.49
2023-03-11T19:49:41.115Z,41.88
2023-03-11T19:50:41.144Z,40.45
2023-03-11T19:51:49.467Z,41.31
2023-03-11T19:52:42.287Z,41.57
2023-03-11T19:53:41.310Z,42.19
2023-03-11T19:54:41.327Z,42.48
2023-03-11T19:55:41.391Z,41.53
2023-03-11T19:56:41.488Z,41.85
2023-03-11T19:57:41.504Z,40.87
2023-03-11T19:58:41.600Z,40.98
2023-03-11T19:59:41.609Z,41.69
2023-03-11T20:00:41.660Z,44.35
2023-03-11T20:01:41.661Z,39.82
2023-03-11T20:02:41.782Z,40.05
2023-03-11T20:03:41.741Z,43.69
2023-03-11T20:04:43.229Z,40.44
2023-03-11T20:05:41.817Z,40.28
2023-03-11T20:06:41.912Z,41.81
2023-03-11T20:07:41.917Z,41.51
2023-03-11T20:08:41.955Z,38.23
2023-03-11T20:09:42.028Z,41.20
2023-03-11T20:10:42.029Z,42.48
2023-03-11T20:11:42.124Z,38.73
2023-03-11T20:12:55.787Z,38.38
2023-03-11T20:13:43.156Z,38.72
2023-03-11T20:14:42.254Z,39.30
2023-03-11T20:15:42.255Z,40.20
2023-03-11T20:16:42.352Z,40.30
2023-03-11T20:17:42.367Z,43.48
2023-03-11T20:18:42.360Z,44.90
2023-03-11T20:19:42.405Z,41.64
2023-03-11T20:20:42.474Z,40.29
2023-03-11T20:21:44.653Z,42.68
2023-03-11T20:22:42.547Z,45.30
2023-03-11T20:23:42.579Z,43.80
2023-03-11T20:24:42.620Z,42.03
2023-03-11T20:25:42.662Z,40.24
2023-03-11T20:26:42.766Z,43.73
2023-03-11T22:29:48.974Z,41.88
2023-03-11T22:30:49.004Z,42.12
2023-03-11T22:31:49.182Z,38.53
2023-03-11T22:32:49.195Z,39.35
2023-03-11T22:33:49.224Z,39.01
2023-03-11T22:34:49.265Z,37.29
2023-03-11T22:35:49.398Z,39.41
2023-03-11T22:36:49.395Z,39.53
2023-03-11T22:37:49.475Z,42.93
2023-03-11T22:38:49.534Z,41.34
2023-03-11T22:39:49.610Z,38.02
2023-03-11T22:40:49.676Z,39.41
2023-03-11T22:41:49.722Z,40.20
2023-03-11T22:42:49.786Z,39.07
2023-03-11T22:43:49.858Z,39.42
2023-03-11T22:44:49.928Z,39.31
2023-03-11T22:45:50.002Z,38.76
2023-03-11T22:46:50.057Z,38.52
2023-03-11T22:47:50.129Z,37.17
2023-03-11T22:48:50.180Z,39.61
2023-03-11T22:49:50.262Z,41.00
2023-03-11T22:50:50.333Z,39.60
2023-03-11T22:51:50.437Z,39.01
2023-03-11T22:52:50.473Z,38.58
2023-03-11T22:53:50.557Z,38.41
2023-03-11T22:54:50.675Z,38.87
2023-03-11T22:55:50.670Z,39.77
2023-03-11T22:56:50.724Z,40.44
2023-03-11T22:57:50.789Z,40.44
2023-03-11T22:59:50.933Z,39.78
2023-03-11T23:00:51.003Z,38.91
2023-03-11T23:01:51.070Z,42.06
2023-03-11T23:02:51.155Z,41.70
2023-03-11T23:03:51.310Z,39.60
2023-03-11T23:04:51.264Z,41.65
2023-03-11T23:05:51.332Z,38.83
2023-03-11T23:06:51.397Z,38.67
2023-03-11T23:07:51.532Z,41.13
2023-03-11T23:08:51.530Z,40.27
2023-03-11T23:09:51.585Z,40.75
2023-03-11T23:10:51.652Z,36.26
2023-03-11T23:11:51.719Z,40.58
2023-03-11T23:12:51.771Z,38.28
2023-03-11T23:13:51.841Z,39.29
2023-03-11T23:14:51.914Z,39.27
2023-03-11T23:15:51.971Z,39.37
2023-03-11T23:16:52.072Z,38.82
2023-03-11T23:17:52.107Z,38.91
2023-03-11T23:18:52.187Z,37.95
2023-03-11T23:19:52.235Z,38.36
2023-03-11T23:20:52.311Z,40.19
